sensor_id;sensor_type;location;lat;lon;timestamp;temperature;humidity
74923;HTU21D;64715;44.760;37.678;2023-04-25T00:00:30;10.35;84.75
74923;HTU21D;64715;44.760;37.678;2023-04-25T00:01:31;10.34;84.77
74923;HTU21D;64715;44.760;37.678;2023-04-25T00:02:34;10.35;84.70
74923;HTU21D;64715;44.760;37.678;2023-04-25T00:03:35;10.34;84.81
74923;HTU21D;64715;44.760;37.678;2023-04-25T00:04:36;10.39;84.80
74923;HTU21D;64715;44.760;37.678;2023-04-25T00:05:38;10.38;84.61
74923;HTU21D;64715;44.760;37.678;2023-04-25T00:06:39;10.39;84.84
74923;HTU21D;64715;44.760;37.678;2023-04-25T00:07:41;10.39;84.58
74923;HTU21D;64715;44.760;37.678;2023-04-25T00:08:43;10.41;84.66
74923;HTU21D;64715;44.760;37.678;2023-04-25T00:09:44;10.41;84.72
74923;HTU21D;64715;44.760;37.678;2023-04-25T00:10:46;10.40;84.64
74923;HTU21D;64715;44.760;37.678;2023-04-25T00:11:47;10.43;84.90
74923;HTU21D;64715;44.760;37.678;2023-04-25T00:12:48;10.43;84.68
74923;HTU21D;64715;44.760;37.678;2023-04-25T00:13:50;10.43;84.75
74923;HTU21D;64715;44.760;37.678;2023-04-25T00:14:54;10.42;84.85
74923;HTU21D;64715;44.760;37.678;2023-04-25T00:15:57;10.44;84.84
74923;HTU21D;64715;44.760;37.678;2023-04-25T00:16:58;10.44;84.97
74923;HTU21D;64715;44.760;37.678;2023-04-25T00:17:59;10.46;84.86
74923;HTU21D;64715;44.760;37.678;2023-04-25T00:19:01;10.50;84.76
74923;HTU21D;64715;44.760;37.678;2023-04-25T00:20:03;10.49;84.63
74923;HTU21D;64715;44.760;37.678;2023-04-25T00:21:05;10.49;84.72
74923;HTU21D;64715;44.760;37.678;2023-04-25T00:25:00;10.50;84.61
74923;HTU21D;64715;44.760;37.678;2023-04-25T00:26:01;10.48;84.48
74923;HTU21D;64715;44.760;37.678;2023-04-25T00:27:01;10.48;84.69
74923;HTU21D;64715;44.760;37.678;2023-04-25T00:28:03;10.49;84.52
74923;HTU21D;64715;44.760;37.678;2023-04-25T00:31:16;10.48;84.72
74923;HTU21D;64715;44.760;37.678;2023-04-25T00:32:17;10.46;84.78
74923;HTU21D;64715;44.760;37.678;2023-04-25T00:33:19;10.45;84.55
74923;HTU21D;64715;44.760;37.678;2023-04-25T00:34:20;10.45;84.67
74923;HTU21D;64715;44.760;37.678;2023-04-25T00:35:21;10.44;84.79
74923;HTU21D;64715;44.760;37.678;2023-04-25T00:36:22;10.45;84.64
74923;HTU21D;64715;44.760;37.678;2023-04-25T00:37:23;10.46;84.70
74923;HTU21D;64715;44.760;37.678;2023-04-25T00:38:24;10.45;84.75
74923;HTU21D;64715;44.760;37.678;2023-04-25T00:39:26;10.45;84.66
74923;HTU21D;64715;44.760;37.678;2023-04-25T00:40:27;10.45;84.83
74923;HTU21D;64715;44.760;37.678;2023-04-25T00:44:08;10.42;84.64
74923;HTU21D;64715;44.760;37.678;2023-04-25T00:45:13;10.40;84.68
74923;HTU21D;64715;44.760;37.678;2023-04-25T00:46:15;10.40;84.77
74923;HTU21D;64715;44.760;37.678;2023-04-25T00:47:16;10.38;84.90
74923;HTU21D;64715;44.760;37.678;2023-04-25T00:48:17;10.39;84.89
74923;HTU21D;64715;44.760;37.678;2023-04-25T00:49:18;10.40;85.09
74923;HTU21D;64715;44.760;37.678;2023-04-25T00:50:19;10.39;84.80
74923;HTU21D;64715;44.760;37.678;2023-04-25T00:51:21;10.41;84.98
74923;HTU21D;64715;44.760;37.678;2023-04-25T00:52:22;10.41;84.82
74923;HTU21D;64715;44.760;37.678;2023-04-25T00:53:26;10.41;85.22
74923;HTU21D;64715;44.760;37.678;2023-04-25T00:54:27;10.39;84.89
74923;HTU21D;64715;44.760;37.678;2023-04-25T00:55:29;10.40;85.01
74923;HTU21D;64715;44.760;37.678;2023-04-25T00:56:32;10.40;85.01
74923;HTU21D;64715;44.760;37.678;2023-04-25T00:57:33;10.42;84.76
74923;HTU21D;64715;44.760;37.678;2023-04-25T00:58:34;10.42;84.69
74923;HTU21D;64715;44.760;37.678;2023-04-25T00:59:36;10.41;85.13
74923;HTU21D;64715;44.760;37.678;2023-04-25T01:00:38;10.41;85.00
74923;HTU21D;64715;44.760;37.678;2023-04-25T01:01:39;10.42;84.75
74923;HTU21D;64715;44.760;37.678;2023-04-25T01:02:41;10.43;84.81
74923;HTU21D;64715;44.760;37.678;2023-04-25T01:03:43;10.43;85.18
74923;HTU21D;64715;44.760;37.678;2023-04-25T01:04:45;10.43;85.00
74923;HTU21D;64715;44.760;37.678;2023-04-25T01:05:47;10.44;84.98
74923;HTU21D;64715;44.760;37.678;2023-04-25T01:06:49;10.42;84.81
74923;HTU21D;64715;44.760;37.678;2023-04-25T01:07:51;10.43;84.84
74923;HTU21D;64715;44.760;37.678;2023-04-25T01:08:52;10.42;85.13
74923;HTU21D;64715;44.760;37.678;2023-04-25T01:09:53;10.41;84.73
74923;HTU21D;64715;44.760;37.678;2023-04-25T01:10:54;10.43;85.32
74923;HTU21D;64715;44.760;37.678;2023-04-25T01:11:56;10.41;85.12
74923;HTU21D;64715;44.760;37.678;2023-04-25T01:12:58;10.42;85.16
74923;HTU21D;64715;44.760;37.678;2023-04-25T01:13:59;10.41;84.94
74923;HTU21D;64715;44.760;37.678;2023-04-25T01:15:02;10.40;84.87
74923;HTU21D;64715;44.760;37.678;2023-04-25T01:16:04;10.40;85.06
74923;HTU21D;64715;44.760;37.678;2023-04-25T01:17:06;10.39;85.02
74923;HTU21D;64715;44.760;37.678;2023-04-25T01:18:08;10.38;85.20
74923;HTU21D;64715;44.760;37.678;2023-04-25T01:19:11;10.36;85.18
74923;HTU21D;64715;44.760;37.678;2023-04-25T01:20:14;10.36;84.86
74923;HTU21D;64715;44.760;37.678;2023-04-25T01:21:15;10.36;85.03
74923;HTU21D;64715;44.760;37.678;2023-04-25T01:22:16;10.36;85.08
74923;HTU21D;64715;44.760;37.678;2023-04-25T01:23:18;10.34;85.20
74923;HTU21D;64715;44.760;37.678;2023-04-25T01:24:20;10.34;85.07
74923;HTU21D;64715;44.760;37.678;2023-04-25T01:25:22;10.31;85.16
74923;HTU21D;64715;44.760;37.678;2023-04-25T01:26:24;10.31;85.09
74923;HTU21D;64715;44.760;37.678;2023-04-25T01:27:25;10.29;85.13
74923;HTU21D;64715;44.760;37.678;2023-04-25T01:28:27;10.29;85.06
74923;HTU21D;64715;44.760;37.678;2023-04-25T01:29:31;10.28;85.26
74923;HTU21D;64715;44.760;37.678;2023-04-25T01:30:33;10.28;85.23
74923;HTU21D;64715;44.760;37.678;2023-04-25T01:31:34;10.25;85.21
74923;HTU21D;64715;44.760;37.678;2023-04-25T01:32:35;10.24;85.06
74923;HTU21D;64715;44.760;37.678;2023-04-25T01:33:39;10.24;85.03
74923;HTU21D;64715;44.760;37.678;2023-04-25T01:34:40;10.23;85.13
74923;HTU21D;64715;44.760;37.678;2023-04-25T01:35:41;10.21;84.90
74923;HTU21D;64715;44.760;37.678;2023-04-25T01:36:42;10.22;85.19
74923;HTU21D;64715;44.760;37.678;2023-04-25T01:37:44;10.18;85.12
74923;HTU21D;64715;44.760;37.678;2023-04-25T01:38:46;10.16;85.03
74923;HTU21D;64715;44.760;37.678;2023-04-25T01:39:48;10.15;85.07
74923;HTU21D;64715;44.760;37.678;2023-04-25T01:40:51;10.13;85.27
74923;HTU21D;64715;44.760;37.678;2023-04-25T01:41:53;10.13;85.17
74923;HTU21D;64715;44.760;37.678;2023-04-25T01:42:55;10.14;85.12
74923;HTU21D;64715;44.760;37.678;2023-04-25T01:43:56;10.13;85.12
74923;HTU21D;64715;44.760;37.678;2023-04-25T01:44:57;10.11;85.18
74923;HTU21D;64715;44.760;37.678;2023-04-25T01:45:58;10.11;85.12
74923;HTU21D;64715;44.760;37.678;2023-04-25T01:47:00;10.10;85.33
74923;HTU21D;64715;44.760;37.678;2023-04-25T01:48:02;10.12;85.24
74923;HTU21D;64715;44.760;37.678;2023-04-25T01:49:03;10.10;85.28
74923;HTU21D;64715;44.760;37.678;2023-04-25T01:50:06;10.10;85.14
74923;HTU21D;64715;44.760;37.678;2023-04-25T01:51:09;10.10;85.16
74923;HTU21D;64715;44.760;37.678;2023-04-25T01:52:12;10.09;85.16
74923;HTU21D;64715;44.760;37.678;2023-04-25T01:53:13;10.10;85.28
74923;HTU21D;64715;44.760;37.678;2023-04-25T01:54:18;10.07;85.35
74923;HTU21D;64715;44.760;37.678;2023-04-25T01:55:20;10.08;85.21
74923;HTU21D;64715;44.760;37.678;2023-04-25T01:56:42;10.06;85.35
74923;HTU21D;64715;44.760;37.678;2023-04-25T01:57:45;10.07;85.64
74923;HTU21D;64715;44.760;37.678;2023-04-25T01:58:46;10.06;85.40
74923;HTU21D;64715;44.760;37.678;2023-04-25T02:00:06;10.06;85.33
74923;HTU21D;64715;44.760;37.678;2023-04-25T02:01:13;10.06;85.57
74923;HTU21D;64715;44.760;37.678;2023-04-25T02:02:20;10.07;85.58
74923;HTU21D;64715;44.760;37.678;2023-04-25T02:03:21;10.06;85.45
74923;HTU21D;64715;44.760;37.678;2023-04-25T02:04:22;10.06;85.18
74923;HTU21D;64715;44.760;37.678;2023-04-25T02:05:23;10.07;85.30
74923;HTU21D;64715;44.760;37.678;2023-04-25T02:06:26;10.07;85.27
74923;HTU21D;64715;44.760;37.678;2023-04-25T02:07:28;10.08;85.62
74923;HTU21D;64715;44.760;37.678;2023-04-25T02:08:30;10.09;85.45
74923;HTU21D;64715;44.760;37.678;2023-04-25T02:09:32;10.09;85.56
74923;HTU21D;64715;44.760;37.678;2023-04-25T02:10:34;10.11;85.46
74923;HTU21D;64715;44.760;37.678;2023-04-25T02:11:54;10.10;85.52
74923;HTU21D;64715;44.760;37.678;2023-04-25T02:13:07;10.11;85.37
74923;HTU21D;64715;44.760;37.678;2023-04-25T02:14:16;10.12;85.55
74923;HTU21D;64715;44.760;37.678;2023-04-25T02:15:33;10.13;85.61
74923;HTU21D;64715;44.760;37.678;2023-04-25T02:16:45;10.13;85.61
74923;HTU21D;64715;44.760;37.678;2023-04-25T02:17:46;10.14;85.74
74923;HTU21D;64715;44.760;37.678;2023-04-25T02:18:47;10.12;85.60
74923;HTU21D;64715;44.760;37.678;2023-04-25T02:19:48;10.16;85.76
74923;HTU21D;64715;44.760;37.678;2023-04-25T02:20:50;10.16;85.78
74923;HTU21D;64715;44.760;37.678;2023-04-25T02:21:51;10.18;85.64
74923;HTU21D;64715;44.760;37.678;2023-04-25T02:22:52;10.20;85.58
74923;HTU21D;64715;44.760;37.678;2023-04-25T02:23:54;10.21;85.69
74923;HTU21D;64715;44.760;37.678;2023-04-25T02:24:55;10.22;85.69
74923;HTU21D;64715;44.760;37.678;2023-04-25T02:25:56;10.22;85.58
74923;HTU21D;64715;44.760;37.678;2023-04-25T02:26:57;10.24;85.67
74923;HTU21D;64715;44.760;37.678;2023-04-25T02:27:58;10.23;85.80
74923;HTU21D;64715;44.760;37.678;2023-04-25T02:28:59;10.26;85.82
74923;HTU21D;64715;44.760;37.678;2023-04-25T02:30:04;10.25;85.71
74923;HTU21D;64715;44.760;37.678;2023-04-25T02:31:07;10.28;85.91
74923;HTU21D;64715;44.760;37.678;2023-04-25T02:32:08;10.27;85.90
74923;HTU21D;64715;44.760;37.678;2023-04-25T02:33:09;10.28;85.79
74923;HTU21D;64715;44.760;37.678;2023-04-25T02:34:10;10.29;85.80
74923;HTU21D;64715;44.760;37.678;2023-04-25T02:35:13;10.30;85.87
74923;HTU21D;64715;44.760;37.678;2023-04-25T02:36:14;10.29;85.91
74923;HTU21D;64715;44.760;37.678;2023-04-25T02:37:15;10.29;85.69
74923;HTU21D;64715;44.760;37.678;2023-04-25T02:38:19;10.30;85.94
74923;HTU21D;64715;44.760;37.678;2023-04-25T02:39:20;10.33;85.84
74923;HTU21D;64715;44.760;37.678;2023-04-25T02:40:23;10.33;85.91
74923;HTU21D;64715;44.760;37.678;2023-04-25T02:41:24;10.31;86.03
74923;HTU21D;64715;44.760;37.678;2023-04-25T02:42:26;10.31;85.96
74923;HTU21D;64715;44.760;37.678;2023-04-25T02:43:27;10.35;85.90
74923;HTU21D;64715;44.760;37.678;2023-04-25T02:44:28;10.35;86.25
74923;HTU21D;64715;44.760;37.678;2023-04-25T02:45:29;10.38;85.93
74923;HTU21D;64715;44.760;37.678;2023-04-25T02:46:30;10.37;85.92
74923;HTU21D;64715;44.760;37.678;2023-04-25T02:47:31;10.37;86.01
74923;HTU21D;64715;44.760;37.678;2023-04-25T02:48:32;10.36;85.74
74923;HTU21D;64715;44.760;37.678;2023-04-25T02:49:33;10.38;85.85
74923;HTU21D;64715;44.760;37.678;2023-04-25T02:50:34;10.38;86.25
74923;HTU21D;64715;44.760;37.678;2023-04-25T02:51:35;10.39;86.09
74923;HTU21D;64715;44.760;37.678;2023-04-25T02:52:36;10.39;85.85
74923;HTU21D;64715;44.760;37.678;2023-04-25T02:53:45;10.41;86.00
74923;HTU21D;64715;44.760;37.678;2023-04-25T02:54:46;10.41;86.10
74923;HTU21D;64715;44.760;37.678;2023-04-25T02:55:47;10.41;86.01
74923;HTU21D;64715;44.760;37.678;2023-04-25T02:56:48;10.42;85.98
74923;HTU21D;64715;44.760;37.678;2023-04-25T02:57:55;10.42;86.09
74923;HTU21D;64715;44.760;37.678;2023-04-25T02:59:09;10.41;86.07
74923;HTU21D;64715;44.760;37.678;2023-04-25T03:00:10;10.42;86.19
74923;HTU21D;64715;44.760;37.678;2023-04-25T03:01:12;10.42;86.11
74923;HTU21D;64715;44.760;37.678;2023-04-25T03:02:13;10.41;85.89
74923;HTU21D;64715;44.760;37.678;2023-04-25T03:03:14;10.40;86.00
74923;HTU21D;64715;44.760;37.678;2023-04-25T03:04:18;10.40;86.03
74923;HTU21D;64715;44.760;37.678;2023-04-25T03:05:19;10.41;86.15
74923;HTU21D;64715;44.760;37.678;2023-04-25T03:06:20;10.40;86.23
74923;HTU21D;64715;44.760;37.678;2023-04-25T03:07:21;10.41;86.00
74923;HTU21D;64715;44.760;37.678;2023-04-25T03:08:23;10.40;86.25
74923;HTU21D;64715;44.760;37.678;2023-04-25T03:09:25;10.40;86.07
74923;HTU21D;64715;44.760;37.678;2023-04-25T03:10:27;10.39;85.94
74923;HTU21D;64715;44.760;37.678;2023-04-25T03:11:28;10.41;86.19
74923;HTU21D;64715;44.760;37.678;2023-04-25T03:12:29;10.38;86.32
74923;HTU21D;64715;44.760;37.678;2023-04-25T03:13:30;10.40;86.20
74923;HTU21D;64715;44.760;37.678;2023-04-25T03:14:32;10.42;86.03
74923;HTU21D;64715;44.760;37.678;2023-04-25T03:15:34;10.41;86.22
74923;HTU21D;64715;44.760;37.678;2023-04-25T03:16:36;10.41;86.25
74923;HTU21D;64715;44.760;37.678;2023-04-25T03:17:37;10.43;86.16
74923;HTU21D;64715;44.760;37.678;2023-04-25T03:18:38;10.43;86.29
74923;HTU21D;64715;44.760;37.678;2023-04-25T03:19:39;10.44;86.22
74923;HTU21D;64715;44.760;37.678;2023-04-25T03:20:40;10.43;86.32
74923;HTU21D;64715;44.760;37.678;2023-04-25T03:21:43;10.45;86.25
74923;HTU21D;64715;44.760;37.678;2023-04-25T03:22:44;10.45;85.98
74923;HTU21D;64715;44.760;37.678;2023-04-25T03:23:45;10.43;86.19
74923;HTU21D;64715;44.760;37.678;2023-04-25T03:24:47;10.45;86.04
74923;HTU21D;64715;44.760;37.678;2023-04-25T03:25:48;10.45;86.24
74923;HTU21D;64715;44.760;37.678;2023-04-25T03:26:49;10.46;86.04
74923;HTU21D;64715;44.760;37.678;2023-04-25T03:27:51;10.48;85.90
74923;HTU21D;64715;44.760;37.678;2023-04-25T03:28:52;10.48;86.06
74923;HTU21D;64715;44.760;37.678;2023-04-25T03:29:53;10.48;86.08
74923;HTU21D;64715;44.760;37.678;2023-04-25T03:30:54;10.48;85.99
74923;HTU21D;64715;44.760;37.678;2023-04-25T03:31:55;10.50;85.88
74923;HTU21D;64715;44.760;37.678;2023-04-25T03:32:56;10.48;86.06
74923;HTU21D;64715;44.760;37.678;2023-04-25T03:36:31;10.43;85.99
74923;HTU21D;64715;44.760;37.678;2023-04-25T03:37:34;10.42;85.77
74923;HTU21D;64715;44.760;37.678;2023-04-25T03:38:36;10.42;86.19
74923;HTU21D;64715;44.760;37.678;2023-04-25T03:41:59;10.38;85.85
74923;HTU21D;64715;44.760;37.678;2023-04-25T03:43:02;10.38;86.06
74923;HTU21D;64715;44.760;37.678;2023-04-25T03:44:03;10.40;86.08
74923;HTU21D;64715;44.760;37.678;2023-04-25T03:45:05;10.39;86.15
74923;HTU21D;64715;44.760;37.678;2023-04-25T04:33:26;10.28;85.84
74923;HTU21D;64715;44.760;37.678;2023-04-25T04:34:33;10.31;86.25
74923;HTU21D;64715;44.760;37.678;2023-04-25T04:35:36;10.36;86.03
74923;HTU21D;64715;44.760;37.678;2023-04-25T04:36:37;10.39;86.24
74923;HTU21D;64715;44.760;37.678;2023-04-25T04:37:38;10.45;86.54
74923;HTU21D;64715;44.760;37.678;2023-04-25T04:38:41;10.50;86.55
74923;HTU21D;64715;44.760;37.678;2023-04-25T04:39:47;10.54;86.45
74923;HTU21D;64715;44.760;37.678;2023-04-25T04:41:01;10.62;86.51
74923;HTU21D;64715;44.760;37.678;2023-04-25T04:42:14;10.68;86.44
74923;HTU21D;64715;44.760;37.678;2023-04-25T04:43:48;10.73;86.51
74923;HTU21D;64715;44.760;37.678;2023-04-25T04:45:08;10.80;86.48
74923;HTU21D;64715;44.760;37.678;2023-04-25T04:46:19;10.86;86.46
74923;HTU21D;64715;44.760;37.678;2023-04-25T04:47:40;10.90;86.37
74923;HTU21D;64715;44.760;37.678;2023-04-25T04:48:59;10.95;86.35
74923;HTU21D;64715;44.760;37.678;2023-04-25T04:50:36;11.02;86.52
74923;HTU21D;64715;44.760;37.678;2023-04-25T04:51:40;11.05;86.46
74923;HTU21D;64715;44.760;37.678;2023-04-25T04:53:00;11.10;86.46
74923;HTU21D;64715;44.760;37.678;2023-04-25T04:54:27;11.17;86.53
74923;HTU21D;64715;44.760;37.678;2023-04-25T04:55:45;11.20;86.32
74923;HTU21D;64715;44.760;37.678;2023-04-25T04:57:03;11.24;86.12
74923;HTU21D;64715;44.760;37.678;2023-04-25T05:00:43;11.32;86.22
74923;HTU21D;64715;44.760;37.678;2023-04-25T05:01:54;11.38;86.44
74923;HTU21D;64715;44.760;37.678;2023-04-25T05:03:15;11.38;86.00
74923;HTU21D;64715;44.760;37.678;2023-04-25T05:04:40;11.42;86.31
74923;HTU21D;64715;44.760;37.678;2023-04-25T05:05:58;11.43;86.10
74923;HTU21D;64715;44.760;37.678;2023-04-25T05:07:26;11.45;86.19
74923;HTU21D;64715;44.760;37.678;2023-04-25T05:08:53;11.51;86.35
74923;HTU21D;64715;44.760;37.678;2023-04-25T05:10:26;11.53;86.30
74923;HTU21D;64715;44.760;37.678;2023-04-25T05:11:53;11.54;86.17
74923;HTU21D;64715;44.760;37.678;2023-04-25T05:13:12;11.59;86.00
74923;HTU21D;64715;44.760;37.678;2023-04-25T05:14:45;11.61;86.22
74923;HTU21D;64715;44.760;37.678;2023-04-25T05:16:12;11.61;86.13
74923;HTU21D;64715;44.760;37.678;2023-04-25T05:17:48;11.66;86.19
74923;HTU21D;64715;44.760;37.678;2023-04-25T05:19:24;11.70;86.14
74923;HTU21D;64715;44.760;37.678;2023-04-25T05:20:44;11.72;86.22
74923;HTU21D;64715;44.760;37.678;2023-04-25T05:21:57;11.77;85.88
74923;HTU21D;64715;44.760;37.678;2023-04-25T05:23:06;11.78;85.95
74923;HTU21D;64715;44.760;37.678;2023-04-25T05:24:26;11.83;85.99
74923;HTU21D;64715;44.760;37.678;2023-04-25T05:25:46;11.84;85.90
74923;HTU21D;64715;44.760;37.678;2023-04-25T05:26:57;11.86;86.31
74923;HTU21D;64715;44.760;37.678;2023-04-25T05:28:16;11.89;85.96
74923;HTU21D;64715;44.760;37.678;2023-04-25T05:29:34;11.93;85.73
74923;HTU21D;64715;44.760;37.678;2023-04-25T05:30:51;11.97;85.84
74923;HTU21D;64715;44.760;37.678;2023-04-25T05:32:15;11.97;85.74
74923;HTU21D;64715;44.760;37.678;2023-04-25T05:33:17;11.99;85.97
74923;HTU21D;64715;44.760;37.678;2023-04-25T05:34:19;12.02;85.82
74923;HTU21D;64715;44.760;37.678;2023-04-25T05:35:40;12.02;85.55
74923;HTU21D;64715;44.760;37.678;2023-04-25T05:36:41;12.04;85.71
74923;HTU21D;64715;44.760;37.678;2023-04-25T05:37:43;12.04;85.99
74923;HTU21D;64715;44.760;37.678;2023-04-25T05:38:46;12.08;85.79
74923;HTU21D;64715;44.760;37.678;2023-04-25T05:40:16;12.12;85.66
74923;HTU21D;64715;44.760;37.678;2023-04-25T05:41:26;12.16;85.59
74923;HTU21D;64715;44.760;37.678;2023-04-25T05:42:34;12.19;85.54
74923;HTU21D;64715;44.760;37.678;2023-04-25T05:43:55;12.20;85.69
74923;HTU21D;64715;44.760;37.678;2023-04-25T05:45:16;12.22;85.60
74923;HTU21D;64715;44.760;37.678;2023-04-25T05:46:44;12.21;85.58
74923;HTU21D;64715;44.760;37.678;2023-04-25T05:48:03;12.20;85.57
74923;HTU21D;64715;44.760;37.678;2023-04-25T05:49:37;12.20;85.42
74923;HTU21D;64715;44.760;37.678;2023-04-25T05:50:52;12.23;85.51
74923;HTU21D;64715;44.760;37.678;2023-04-25T05:52:19;12.25;85.32
74923;HTU21D;64715;44.760;37.678;2023-04-25T05:53:50;12.27;85.38
74923;HTU21D;64715;44.760;37.678;2023-04-25T05:54:51;12.29;85.56
74923;HTU21D;64715;44.760;37.678;2023-04-25T05:55:52;12.31;85.45
74923;HTU21D;64715;44.760;37.678;2023-04-25T05:56:57;12.33;85.67
74923;HTU21D;64715;44.760;37.678;2023-04-25T05:57:58;12.36;85.62
74923;HTU21D;64715;44.760;37.678;2023-04-25T05:58:59;12.41;85.56
74923;HTU21D;64715;44.760;37.678;2023-04-25T06:00:00;12.43;85.57
74923;HTU21D;64715;44.760;37.678;2023-04-25T06:01:14;12.46;85.45
74923;HTU21D;64715;44.760;37.678;2023-04-25T06:02:15;12.48;85.48
74923;HTU21D;64715;44.760;37.678;2023-04-25T06:03:17;12.53;85.45
74923;HTU21D;64715;44.760;37.678;2023-04-25T06:04:19;12.55;85.32
74923;HTU21D;64715;44.760;37.678;2023-04-25T06:05:20;12.57;85.44
74923;HTU21D;64715;44.760;37.678;2023-04-25T06:06:22;12.60;85.28
74923;HTU21D;64715;44.760;37.678;2023-04-25T06:07:23;12.63;85.18
74923;HTU21D;64715;44.760;37.678;2023-04-25T06:08:24;12.64;85.32
74923;HTU21D;64715;44.760;37.678;2023-04-25T06:09:25;12.66;85.28
74923;HTU21D;64715;44.760;37.678;2023-04-25T06:10:28;12.71;85.35
74923;HTU21D;64715;44.760;37.678;2023-04-25T06:11:54;12.77;85.22
74923;HTU21D;64715;44.760;37.678;2023-04-25T06:13:15;12.82;85.19
74923;HTU21D;64715;44.760;37.678;2023-04-25T06:14:40;12.90;85.41
74923;HTU21D;64715;44.760;37.678;2023-04-25T06:16:07;12.99;85.03
74923;HTU21D;64715;44.760;37.678;2023-04-25T06:17:33;13.05;85.09
74923;HTU21D;64715;44.760;37.678;2023-04-25T06:18:58;13.10;85.10
74923;HTU21D;64715;44.760;37.678;2023-04-25T06:20:18;13.15;85.00
74923;HTU21D;64715;44.760;37.678;2023-04-25T06:21:43;13.18;84.97
74923;HTU21D;64715;44.760;37.678;2023-04-25T06:23:03;13.20;85.13
74923;HTU21D;64715;44.760;37.678;2023-04-25T06:24:24;13.26;84.94
74923;HTU21D;64715;44.760;37.678;2023-04-25T06:25:47;13.33;84.78
74923;HTU21D;64715;44.760;37.678;2023-04-25T06:27:12;13.39;84.74
74923;HTU21D;64715;44.760;37.678;2023-04-25T06:28:32;13.39;84.67
74923;HTU21D;64715;44.760;37.678;2023-04-25T06:29:52;13.40;84.53
74923;HTU21D;64715;44.760;37.678;2023-04-25T06:30:53;13.45;84.29
74923;HTU21D;64715;44.760;37.678;2023-04-25T06:31:54;13.46;84.35
74923;HTU21D;64715;44.760;37.678;2023-04-25T06:32:56;13.51;84.43
74923;HTU21D;64715;44.760;37.678;2023-04-25T06:34:00;13.58;84.48
74923;HTU21D;64715;44.760;37.678;2023-04-25T06:35:03;13.63;84.55
74923;HTU21D;64715;44.760;37.678;2023-04-25T06:36:07;13.68;84.29
74923;HTU21D;64715;44.760;37.678;2023-04-25T06:37:09;13.74;84.16
74923;HTU21D;64715;44.760;37.678;2023-04-25T06:38:10;13.79;83.98
74923;HTU21D;64715;44.760;37.678;2023-04-25T06:39:13;13.84;84.08
74923;HTU21D;64715;44.760;37.678;2023-04-25T06:40:13;13.89;83.87
74923;HTU21D;64715;44.760;37.678;2023-04-25T06:41:15;13.92;83.90
74923;HTU21D;64715;44.760;37.678;2023-04-25T06:42:41;14.01;83.78
74923;HTU21D;64715;44.760;37.678;2023-04-25T06:44:07;14.09;83.48
74923;HTU21D;64715;44.760;37.678;2023-04-25T06:45:33;14.13;83.38
74923;HTU21D;64715;44.760;37.678;2023-04-25T06:46:59;14.14;83.24
74923;HTU21D;64715;44.760;37.678;2023-04-25T07:29:33;14.52;82.81
74923;HTU21D;64715;44.760;37.678;2023-04-25T07:30:37;14.55;82.92
74923;HTU21D;64715;44.760;37.678;2023-04-25T07:31:39;14.57;83.02
74923;HTU21D;64715;44.760;37.678;2023-04-25T07:32:39;14.59;82.70
74923;HTU21D;64715;44.760;37.678;2023-04-25T07:33:41;14.59;82.61
74923;HTU21D;64715;44.760;37.678;2023-04-25T07:34:42;14.63;82.35
74923;HTU21D;64715;44.760;37.678;2023-04-25T07:35:43;14.64;82.13
74923;HTU21D;64715;44.760;37.678;2023-04-25T07:36:45;14.70;82.05
74923;HTU21D;64715;44.760;37.678;2023-04-25T07:37:46;14.74;82.00
74923;HTU21D;64715;44.760;37.678;2023-04-25T07:38:50;14.77;81.97
74923;HTU21D;64715;44.760;37.678;2023-04-25T07:39:51;14.79;81.70
74923;HTU21D;64715;44.760;37.678;2023-04-25T07:40:52;14.79;81.61
74923;HTU21D;64715;44.760;37.678;2023-04-25T07:41:53;14.83;81.45
74923;HTU21D;64715;44.760;37.678;2023-04-25T07:42:58;14.84;81.35
74923;HTU21D;64715;44.760;37.678;2023-04-25T07:44:22;14.89;81.43
74923;HTU21D;64715;44.760;37.678;2023-04-25T07:45:23;14.95;81.20
74923;HTU21D;64715;44.760;37.678;2023-04-25T07:46:25;14.98;81.13
74923;HTU21D;64715;44.760;37.678;2023-04-25T07:47:26;15.00;81.05
74923;HTU21D;64715;44.760;37.678;2023-04-25T07:48:27;15.01;80.89
74923;HTU21D;64715;44.760;37.678;2023-04-25T07:49:28;15.04;80.83
74923;HTU21D;64715;44.760;37.678;2023-04-25T07:50:29;15.07;80.80
74923;HTU21D;64715;44.760;37.678;2023-04-25T07:51:31;15.07;80.24
74923;HTU21D;64715;44.760;37.678;2023-04-25T07:52:37;15.11;80.49
74923;HTU21D;64715;44.760;37.678;2023-04-25T07:53:47;15.21;80.85
74923;HTU21D;64715;44.760;37.678;2023-04-25T07:54:50;15.30;80.89
74923;HTU21D;64715;44.760;37.678;2023-04-25T07:55:57;15.39;80.56
74923;HTU21D;64715;44.760;37.678;2023-04-25T07:56:58;15.44;80.49
74923;HTU21D;64715;44.760;37.678;2023-04-25T07:58:03;15.52;80.33
74923;HTU21D;64715;44.760;37.678;2023-04-25T07:59:05;15.59;80.39
74923;HTU21D;64715;44.760;37.678;2023-04-25T08:00:07;15.65;79.97
74923;HTU21D;64715;44.760;37.678;2023-04-25T08:01:14;15.69;79.83
74923;HTU21D;64715;44.760;37.678;2023-04-25T08:02:23;15.72;79.74
74923;HTU21D;64715;44.760;37.678;2023-04-25T08:03:26;15.72;79.82
74923;HTU21D;64715;44.760;37.678;2023-04-25T08:04:28;15.72;79.28
74923;HTU21D;64715;44.760;37.678;2023-04-25T08:05:35;15.71;79.24
74923;HTU21D;64715;44.760;37.678;2023-04-25T08:06:39;15.70;78.92
74923;HTU21D;64715;44.760;37.678;2023-04-25T08:07:50;15.72;79.00
74923;HTU21D;64715;44.760;37.678;2023-04-25T08:08:52;15.75;78.82
74923;HTU21D;64715;44.760;37.678;2023-04-25T08:09:55;15.76;78.80
74923;HTU21D;64715;44.760;37.678;2023-04-25T08:11:01;15.72;78.47
74923;HTU21D;64715;44.760;37.678;2023-04-25T08:12:02;15.63;78.28
74923;HTU21D;64715;44.760;37.678;2023-04-25T08:13:06;15.57;78.44
74923;HTU21D;64715;44.760;37.678;2023-04-25T08:14:08;15.47;78.06
74923;HTU21D;64715;44.760;37.678;2023-04-25T08:15:09;15.40;78.31
74923;HTU21D;64715;44.760;37.678;2023-04-25T08:16:13;15.34;78.15
74923;HTU21D;64715;44.760;37.678;2023-04-25T08:17:15;15.26;78.14
74923;HTU21D;64715;44.760;37.678;2023-04-25T08:18:16;15.19;78.36
74923;HTU21D;64715;44.760;37.678;2023-04-25T08:19:17;15.16;78.50
74923;HTU21D;64715;44.760;37.678;2023-04-25T08:20:19;15.11;78.57
74923;HTU21D;64715;44.760;37.678;2023-04-25T08:21:46;15.08;78.40
74923;HTU21D;64715;44.760;37.678;2023-04-25T08:23:12;15.06;78.78
74923;HTU21D;64715;44.760;37.678;2023-04-25T08:24:39;15.06;78.57
74923;HTU21D;64715;44.760;37.678;2023-04-25T08:26:02;15.07;78.68
74923;HTU21D;64715;44.760;37.678;2023-04-25T08:27:22;15.07;78.73
74923;HTU21D;64715;44.760;37.678;2023-04-25T08:28:47;15.10;78.73
74923;HTU21D;64715;44.760;37.678;2023-04-25T08:30:08;15.17;78.63
74923;HTU21D;64715;44.760;37.678;2023-04-25T08:31:30;15.21;78.74